Flight Track Log - Related Links

Times and Time Zones

All times are in EDT time to prevent confusion due to time zone crossing. See the SWA158 flight status page for this flight to view local times or setup timezone preferences in your user account.

Time Position Orientation Groundspeed Altitude Reporting Facility
EDT Latitude Longitude Course Direction KTS MPH feet Rate Location/Type
Fri 02:47:38 PM 41.8167 -87.7833 360° North 229 264 3,000  Level Chicago TRACON
Fri 02:48:32 PM 41.8333 -87.7167 71° East 249 287 3,000 842 Level Chicago TRACON
Fri 02:49:32 PM 41.8167 -87.6167 103° East 255 293 4,600 1,732 Climbing Chicago TRACON
Fri 02:50:09 PM 41.8094 -87.5742 103° East 252 290 5,800 2,606 Climbing Chicago Center
Fri 02:51:11 PM 41.7953 -87.4578 99° East 302 348 8,900 3,194 Climbing Chicago Center
Fri 02:52:13 PM 41.8014 -87.3353 86° East 329 379 12,400 3,339 Climbing Chicago Center
Fri 02:53:15 PM 41.8114 -87.1772 85° East 348 400 15,800 3,194 Climbing Chicago Center
Fri 02:54:17 PM 41.8253 -87.0275 83° East 392 451 19,000 3,048 Climbing Chicago Center
Fri 02:55:19 PM 41.8364 -86.8753 84° East 407 468 22,100 2,758 Climbing Chicago Center
Fri 02:56:21 PM 41.8500 -86.7194 83° East 418 481 24,700 2,226 Climbing Chicago Center
Fri 02:57:23 PM 41.8672 -86.5517 82° East 433 498 26,700 1,742 Climbing Chicago Center
Fri 02:58:25 PM 41.8908 -86.3800 79° East 459 528 28,300 1,500 Climbing Chicago Center
Fri 02:59:27 PM 41.9136 -86.2003 80° East 479 551 29,800 1,559 Climbing Chicago Center
Fri 03:00:32 PM 41.9408 -85.9769 81° East 500 575 31,600 1,417 Climbing Chicago Center
Fri 03:01:34 PM 41.9650 -85.7839 80° East 515 593 32,800 1,161 Climbing Chicago Center
Fri 03:02:36 PM 41.9889 -85.5897 81° East 521 600 34,000 726 Climbing Chicago Center
Fri 03:03:38 PM 42.0119 -85.3797 82° East 520 598 34,300 513 Climbing Chicago Center
Fri 03:04:33 PM 42.0358 -85.2050 80° East 524 603 35,000 789 Climbing Cleveland Center
Fri 03:05:32 PM 42.0581 -85.0081 81° East 543 625 35,800 655 Climbing Cleveland Center
Fri 03:06:32 PM 42.0781 -84.8108 82° East 538 619 36,300 1,050 Climbing Cleveland Center
Fri 03:07:32 PM 42.0967 -84.6411 82° East 532 612 37,900 992 Climbing Cleveland Center
Fri 03:08:33 PM 42.1178 -84.4522 81° East 515 593 38,300 545 Climbing Cleveland Center
Fri 03:09:33 PM 42.1353 -84.2375 84° East 515 593 39,000 350 Climbing Cleveland Center
Fri 03:10:33 PM 42.1558 -84.0453 82° East 515 593 39,000  Level Cleveland Center
Fri 03:11:33 PM 42.1739 -83.8586 83° East 515 593 39,000  Level Cleveland Center
Fri 03:12:33 PM 42.1936 -83.6689 82° East 515 593 39,000  Level Cleveland Center
Fri 03:13:33 PM 42.2108 -83.4903 83° East 526 605 39,000  Level Cleveland Center
Fri 03:14:33 PM 42.2300 -83.2978 82° East 521 600 39,000  Level Cleveland Center
Fri 03:15:33 PM 42.2492 -83.1022 82° East 521 600 39,000  Level Cleveland Center
Fri 03:16:34 PM 42.2678 -82.9092 83° East 521 600 39,000  Level Cleveland Center
Fri 03:17:33 PM 42.2861 -82.7192 83° East 515 593 39,000  Level Cleveland Center
Fri 03:18:33 PM 42.3019 -82.5286 84° East 515 593 39,000  Level Cleveland Center
Fri 03:19:33 PM 42.3175 -82.3356 84° East 520 598 39,000  Level Cleveland Center
Fri 03:20:33 PM 42.3394 -82.1281 82° East 515 593 39,000  Level Cleveland Center
Fri 03:21:33 PM 42.3542 -81.9347 84° East 515 593 39,000  Level Cleveland Center
Fri 03:22:33 PM 42.3711 -81.7383 83° East 524 603 39,000  Level Cleveland Center
Fri 03:23:33 PM 42.3875 -81.5447 83° East 524 603 39,000  Level Cleveland Center
Fri 03:24:32 PM 42.4011 -81.3733 84° East 517 595 39,000  Level Cleveland Center
Fri 03:25:33 PM 42.4169 -81.1822 84° East 517 595 39,000  Level Cleveland Center
Fri 03:26:33 PM 42.4325 -80.9856 84° East 524 603 39,000  Level Cleveland Center
Fri 03:27:33 PM 42.4433 -80.7914 86° East 519 597 39,000  Level Cleveland Center
Fri 03:28:33 PM 42.4581 -80.6028 84° East 507 583 39,000  Level Cleveland Center
Fri 03:29:33 PM 42.4725 -80.3917 85° East 507 583 39,000  Level Cleveland Center
Fri 03:30:33 PM 42.4847 -80.2003 85° East 507 583 39,000  Level Cleveland Center
Fri 03:31:33 PM 42.4983 -80.0086 84° East 507 583 39,000  Level Cleveland Center
Fri 03:32:33 PM 42.5161 -79.8225 83° East 501 577 39,000  Level Cleveland Center
Fri 03:33:33 PM 42.5272 -79.6308 85° East 501 577 39,000  Level Cleveland Center
Fri 03:34:32 PM 42.5381 -79.4392 86° East 501 577 39,000  Level Cleveland Center
Fri 03:35:33 PM 42.5506 -79.2500 85° East 501 577 39,000  Level Cleveland Center
Fri 03:36:33 PM 42.5628 -79.0581 85° East 501 577 39,000  Level Cleveland Center
Fri 03:37:33 PM 42.5747 -78.8689 85° East 501 577 39,000  Level Cleveland Center
Fri 03:38:33 PM 42.5819 -78.6769 87° East 501 577 39,000  Level Cleveland Center
Fri 03:39:33 PM 42.5933 -78.4878 85° East 501 577 39,000  Level Cleveland Center
Fri 03:40:33 PM 42.6044 -78.2956 85° East 501 577 39,000  Level Cleveland Center
Fri 03:41:33 PM 42.6128 -78.1061 87° East 501 577 39,000  Level Cleveland Center
Fri 03:42:33 PM 42.6211 -77.9194 86° East 501 577 39,000  Level Cleveland Center
Fri 03:43:33 PM 42.6317 -77.7469 85° East 501 577 39,000  Level Cleveland Center
Fri 03:44:33 PM 42.6394 -77.5544 87° East 501 577 39,000  Level Cleveland Center
Fri 03:45:33 PM 42.6467 -77.3622 87° East 501 577 39,000  Level Cleveland Center
Fri 03:46:33 PM 42.6558 -77.1725 86° East 501 577 39,000  Level Cleveland Center
Fri 03:48:38 PM 42.6725 -76.7614 87° East 500 575 39,000  Level Boston Center
Fri 03:49:39 PM 42.6789 -76.5894 87° East 500 575 39,000  Level Boston Center
Fri 03:50:39 PM 42.6864 -76.3836 87° East 494 568 39,000  Level Boston Center
Fri 03:51:39 PM 42.6900 -76.2144 88° East 494 568 39,000  Level Boston Center
Fri 03:52:36 PM 42.6961 -76.0253 87° East 494 568 39,000  Level Boston Center
Fri 03:53:39 PM 42.7019 -75.8364 88° East 494 568 39,000 -446 Level Boston Center
Fri 03:54:37 PM 42.7072 -75.6558 88° East 488 562 38,100 -1,017 Descending Boston Center
Fri 03:55:37 PM 42.7147 -75.4556 87° East 483 556 37,000 -984 Descending Boston Center
Fri 03:56:39 PM 42.7172 -75.2747 89° East 478 550 36,100 -1,254 Descending Boston Center
Fri 03:57:51 PM 42.7225 -75.0517 88° East 478 550 34,200 -1,892 Descending Boston Center
Fri 03:58:49 PM 42.7267 -74.8736 88° East 478 550 32,000 -2,186 Descending Boston Center
Fri 03:59:49 PM 42.7322 -74.6958 88° East 478 550 29,900 -1,488 Descending Boston Center
Fri 04:00:50 PM 42.7336 -74.5206 89° East 472 543 29,000 -793 Descending Boston Center
Fri 04:01:50 PM 42.7367 -74.3453 89° East 466 536 28,300 -793 Descending Boston Center
Fri 04:02:51 PM 42.7417 -74.1675 88° East 461 531 27,400 -984 Descending Boston Center
Fri 04:03:52 PM 42.7400 -73.9922 91° East 461 531 26,300 -1,068 Descending Boston Center
Fri 04:04:49 PM 42.7442 -73.8197 88° East 461 531 25,300 -974 Descending Boston Center
Fri 04:05:49 PM 42.7544 -73.6644 85° East 456 525 24,400 -744 Descending Boston Center
Fri 04:06:50 PM 42.7603 -73.4919 87° East 456 525 23,800 -744 Descending Boston Center
Fri 04:07:50 PM 42.7658 -73.3225 87° East 456 525 22,900 -992 Descending Boston Center
Fri 04:08:51 PM 42.7711 -73.1528 88° East 451 519 21,800 -1,109 Descending Boston Center
Fri 04:09:49 PM 42.7764 -72.9661 88° East 444 511 20,700 -915 Descending Boston Center
Fri 04:10:49 PM 42.7811 -72.8106 88° East 438 504 20,000 -639 Descending Boston Center
Fri 04:11:51 PM 42.7942 -72.6919 81° East 419 482 19,400 -1,082 Descending Boston Center
Fri 04:12:51 PM 42.8358 -72.5364 70° East 389 448 17,800 -1,664 Descending Boston Center
Fri 04:13:50 PM 42.8694 -72.4089 70° East 375 432 16,100 -1,966 Descending Boston Center
Fri 04:14:50 PM 42.8589 -72.2786 96° East 349 402 13,900 -1,934 Descending Boston Center
Fri 04:15:51 PM 42.8439 -72.1483 99° East 341 392 12,200 -1,866 Descending Boston Center
Fri 04:16:49 PM 42.8353 -72.0353 96° East 341 392 10,200 -1,765 Descending Boston Center
Fri 04:17:50 PM 42.8786 -71.9103 65° Northeast 327 376 8,700 -1,230 Descending Boston Center
Fri 04:18:51 PM 42.9303 -71.8247 50° Northeast 322 371 7,700 -1,091 Descending Boston Center
Fri 04:19:51 PM 42.9922 -71.7333 47° Northeast 300 345 6,500 -1,271 Descending Boston Center
Fri 04:20:49 PM 43.0417 -71.6675 44° Northeast 273 314 5,200 -1,475 Descending Boston Center
Fri 04:21:49 PM 43.0764 -71.5703 64° Northeast 256 295 3,600 -1,400 Descending Boston Center
Fri 04:22:49 PM 43.0594 -71.5108 111° Southeast 201 231 2,400 -934 Descending Boston Center
Fri 04:23:51 PM 43.0153 -71.4858 158° South 156 180 1,700 -639 Descending Boston Center
Fri 04:24:51 PM 42.9839 -71.4667 156° South 147 169 1,100 -712 Descending Boston Center
Fri 04:25:49 PM 42.9461 -71.4417 154° Southeast 142 163 300 -407 Descending Boston Center
Fri 04:26:49 PM 42.9128 -71.4308 167° South 142 163 300 9,197 Level Boston Center
Fri 04:27:51 PM 42.8772 -71.4172 164° South 142 163 19,000 18,097 Climbing Boston Center

Login

Don't have an account? Register now (free) for customized features, flight alerts, and more!